sensor_id;sensor_type;location;lat;lon;timestamp;temperature;humidity
30473;DHT22;17263;48.160;11.452;2023-05-07T00:00:21;12.80;99.90
30473;DHT22;17263;48.160;11.452;2023-05-07T00:02:47;12.80;99.90
30473;DHT22;17263;48.160;11.452;2023-05-07T00:05:13;12.80;99.90
30473;DHT22;17263;48.160;11.452;2023-05-07T00:07:40;12.70;99.90
30473;DHT22;17263;48.160;11.452;2023-05-07T00:10:06;12.70;99.90
30473;DHT22;17263;48.160;11.452;2023-05-07T00:12:33;12.70;99.90
30473;DHT22;17263;48.160;11.452;2023-05-07T00:15:03;12.60;99.90
30473;DHT22;17263;48.160;11.452;2023-05-07T00:17:29;12.60;99.90
30473;DHT22;17263;48.160;11.452;2023-05-07T00:19:55;12.60;99.90
30473;DHT22;17263;48.160;11.452;2023-05-07T00:22:21;12.60;99.90
30473;DHT22;17263;48.160;11.452;2023-05-07T00:24:47;12.60;99.90
30473;DHT22;17263;48.160;11.452;2023-05-07T00:27:13;12.60;99.90
30473;DHT22;17263;48.160;11.452;2023-05-07T00:29:40;12.60;99.90
30473;DHT22;17263;48.160;11.452;2023-05-07T00:32:06;12.60;99.90
30473;DHT22;17263;48.160;11.452;2023-05-07T00:34:32;12.50;99.90
30473;DHT22;17263;48.160;11.452;2023-05-07T00:36:58;12.50;99.90
30473;DHT22;17263;48.160;11.452;2023-05-07T00:39:24;12.50;99.90
30473;DHT22;17263;48.160;11.452;2023-05-07T00:41:50;12.50;99.90
30473;DHT22;17263;48.160;11.452;2023-05-07T00:44:17;12.50;99.90
30473;DHT22;17263;48.160;11.452;2023-05-07T00:46:44;12.50;99.90
30473;DHT22;17263;48.160;11.452;2023-05-07T00:49:11;12.50;99.90
30473;DHT22;17263;48.160;11.452;2023-05-07T00:51:37;12.50;99.90
30473;DHT22;17263;48.160;11.452;2023-05-07T00:54:03;12.50;99.90
30473;DHT22;17263;48.160;11.452;2023-05-07T00:56:29;12.50;99.90
30473;DHT22;17263;48.160;11.452;2023-05-07T00:58:56;12.50;99.90
30473;DHT22;17263;48.160;11.452;2023-05-07T01:01:22;12.50;99.90
30473;DHT22;17263;48.160;11.452;2023-05-07T01:03:48;12.50;99.90
30473;DHT22;17263;48.160;11.452;2023-05-07T01:06:15;12.50;99.90
30473;DHT22;17263;48.160;11.452;2023-05-07T01:08:43;12.50;99.90
30473;DHT22;17263;48.160;11.452;2023-05-07T01:11:09;12.50;99.90
30473;DHT22;17263;48.160;11.452;2023-05-07T01:13:37;12.50;99.90
30473;DHT22;17263;48.160;11.452;2023-05-07T01:16:04;12.50;99.90
30473;DHT22;17263;48.160;11.452;2023-05-07T01:18:30;12.50;99.90
30473;DHT22;17263;48.160;11.452;2023-05-07T01:20:58;12.50;99.90
30473;DHT22;17263;48.160;11.452;2023-05-07T01:23:25;12.50;99.90
30473;DHT22;17263;48.160;11.452;2023-05-07T01:25:53;12.50;99.90
30473;DHT22;17263;48.160;11.452;2023-05-07T01:28:19;12.50;99.90
30473;DHT22;17263;48.160;11.452;2023-05-07T01:30:48;12.50;99.90
30473;DHT22;17263;48.160;11.452;2023-05-07T01:33:19;12.50;99.90
30473;DHT22;17263;48.160;11.452;2023-05-07T01:35:50;12.40;99.90
30473;DHT22;17263;48.160;11.452;2023-05-07T01:38:18;12.40;99.90
30473;DHT22;17263;48.160;11.452;2023-05-07T01:40:45;12.40;99.90
30473;DHT22;17263;48.160;11.452;2023-05-07T01:43:11;12.40;99.90
30473;DHT22;17263;48.160;11.452;2023-05-07T01:45:38;12.40;99.90
30473;DHT22;17263;48.160;11.452;2023-05-07T01:48:07;12.40;99.90
30473;DHT22;17263;48.160;11.452;2023-05-07T01:50:34;12.40;99.90
30473;DHT22;17263;48.160;11.452;2023-05-07T01:53:01;12.40;99.90
30473;DHT22;17263;48.160;11.452;2023-05-07T01:55:28;12.30;99.90
30473;DHT22;17263;48.160;11.452;2023-05-07T01:57:54;12.30;99.90
30473;DHT22;17263;48.160;11.452;2023-05-07T02:00:20;12.30;99.90
30473;DHT22;17263;48.160;11.452;2023-05-07T02:02:46;12.30;99.90
30473;DHT22;17263;48.160;11.452;2023-05-07T02:05:12;12.30;99.90
30473;DHT22;17263;48.160;11.452;2023-05-07T02:07:38;12.30;99.90
30473;DHT22;17263;48.160;11.452;2023-05-07T02:10:05;12.30;99.90
30473;DHT22;17263;48.160;11.452;2023-05-07T02:12:31;12.30;99.90
30473;DHT22;17263;48.160;11.452;2023-05-07T02:14:57;12.30;99.90
30473;DHT22;17263;48.160;11.452;2023-05-07T02:17:23;12.20;99.90
30473;DHT22;17263;48.160;11.452;2023-05-07T02:19:49;12.20;99.90
30473;DHT22;17263;48.160;11.452;2023-05-07T02:22:15;12.30;99.90
30473;DHT22;17263;48.160;11.452;2023-05-07T02:24:41;12.30;99.90
30473;DHT22;17263;48.160;11.452;2023-05-07T02:27:07;12.20;99.90
30473;DHT22;17263;48.160;11.452;2023-05-07T02:29:33;12.30;99.90
30473;DHT22;17263;48.160;11.452;2023-05-07T02:31:59;12.20;99.90
30473;DHT22;17263;48.160;11.452;2023-05-07T02:34:26;12.20;99.90
30473;DHT22;17263;48.160;11.452;2023-05-07T02:36:52;12.20;99.90
30473;DHT22;17263;48.160;11.452;2023-05-07T02:39:18;12.20;99.90
30473;DHT22;17263;48.160;11.452;2023-05-07T02:41:44;12.20;99.90
30473;DHT22;17263;48.160;11.452;2023-05-07T02:44:10;12.20;99.90
30473;DHT22;17263;48.160;11.452;2023-05-07T02:46:36;12.10;99.90
30473;DHT22;17263;48.160;11.452;2023-05-07T02:49:02;12.10;99.90
30473;DHT22;17263;48.160;11.452;2023-05-07T02:51:30;12.10;99.90
30473;DHT22;17263;48.160;11.452;2023-05-07T02:53:56;12.10;99.90
30473;DHT22;17263;48.160;11.452;2023-05-07T02:56:22;12.10;99.90
30473;DHT22;17263;48.160;11.452;2023-05-07T02:58:48;12.10;99.90
30473;DHT22;17263;48.160;11.452;2023-05-07T03:01:14;12.10;99.90
30473;DHT22;17263;48.160;11.452;2023-05-07T03:03:40;12.10;99.90
30473;DHT22;17263;48.160;11.452;2023-05-07T03:06:06;12.00;99.90
30473;DHT22;17263;48.160;11.452;2023-05-07T03:08:32;12.00;99.90
30473;DHT22;17263;48.160;11.452;2023-05-07T03:10:59;12.00;99.90
30473;DHT22;17263;48.160;11.452;2023-05-07T03:13:25;12.00;99.90
30473;DHT22;17263;48.160;11.452;2023-05-07T03:15:51;12.00;99.90
30473;DHT22;17263;48.160;11.452;2023-05-07T03:18:17;12.00;99.90
30473;DHT22;17263;48.160;11.452;2023-05-07T03:20:43;12.00;99.90
30473;DHT22;17263;48.160;11.452;2023-05-07T03:23:09;11.90;99.90
30473;DHT22;17263;48.160;11.452;2023-05-07T03:25:35;11.90;99.90
30473;DHT22;17263;48.160;11.452;2023-05-07T03:28:01;11.90;99.90
30473;DHT22;17263;48.160;11.452;2023-05-07T03:30:27;11.90;99.90
30473;DHT22;17263;48.160;11.452;2023-05-07T03:32:53;11.80;99.90
30473;DHT22;17263;48.160;11.452;2023-05-07T03:35:19;11.80;99.90
30473;DHT22;17263;48.160;11.452;2023-05-07T03:37:46;11.80;99.90
30473;DHT22;17263;48.160;11.452;2023-05-07T03:40:12;11.70;99.90
30473;DHT22;17263;48.160;11.452;2023-05-07T03:42:38;11.80;99.90
30473;DHT22;17263;48.160;11.452;2023-05-07T03:45:04;11.80;99.90
30473;DHT22;17263;48.160;11.452;2023-05-07T03:47:30;11.80;99.90
30473;DHT22;17263;48.160;11.452;2023-05-07T03:49:56;11.80;99.90
30473;DHT22;17263;48.160;11.452;2023-05-07T03:52:22;11.80;99.90
30473;DHT22;17263;48.160;11.452;2023-05-07T03:54:52;11.70;99.90
30473;DHT22;17263;48.160;11.452;2023-05-07T03:57:19;11.70;99.90
30473;DHT22;17263;48.160;11.452;2023-05-07T03:59:45;11.70;99.90
30473;DHT22;17263;48.160;11.452;2023-05-07T04:02:11;11.70;99.90
30473;DHT22;17263;48.160;11.452;2023-05-07T04:04:37;11.70;99.90
30473;DHT22;17263;48.160;11.452;2023-05-07T04:07:03;11.70;99.90
30473;DHT22;17263;48.160;11.452;2023-05-07T04:09:30;11.70;99.90
30473;DHT22;17263;48.160;11.452;2023-05-07T04:11:56;11.70;99.90
30473;DHT22;17263;48.160;11.452;2023-05-07T04:14:22;11.70;99.90
30473;DHT22;17263;48.160;11.452;2023-05-07T04:16:48;11.70;99.90
30473;DHT22;17263;48.160;11.452;2023-05-07T04:19:14;11.70;99.90
30473;DHT22;17263;48.160;11.452;2023-05-07T04:21:40;11.70;99.90
30473;DHT22;17263;48.160;11.452;2023-05-07T04:24:06;11.70;99.90
30473;DHT22;17263;48.160;11.452;2023-05-07T04:26:32;11.70;99.90
30473;DHT22;17263;48.160;11.452;2023-05-07T04:28:59;11.80;99.90
30473;DHT22;17263;48.160;11.452;2023-05-07T04:31:25;11.80;99.90
30473;DHT22;17263;48.160;11.452;2023-05-07T04:33:51;11.80;99.90
30473;DHT22;17263;48.160;11.452;2023-05-07T04:36:17;11.80;99.90
30473;DHT22;17263;48.160;11.452;2023-05-07T04:38:43;11.90;99.90
30473;DHT22;17263;48.160;11.452;2023-05-07T04:41:09;12.00;99.90
30473;DHT22;17263;48.160;11.452;2023-05-07T04:43:35;12.10;99.90
30473;DHT22;17263;48.160;11.452;2023-05-07T04:46:01;12.50;99.90
30473;DHT22;17263;48.160;11.452;2023-05-07T04:48:27;13.20;99.90
30473;DHT22;17263;48.160;11.452;2023-05-07T04:50:54;13.90;99.90
30473;DHT22;17263;48.160;11.452;2023-05-07T04:53:21;14.70;99.90
30473;DHT22;17263;48.160;11.452;2023-05-07T04:55:47;15.30;99.90
30473;DHT22;17263;48.160;11.452;2023-05-07T04:58:13;15.60;99.90
30473;DHT22;17263;48.160;11.452;2023-05-07T05:00:39;15.80;99.90
30473;DHT22;17263;48.160;11.452;2023-05-07T05:03:08;16.00;99.90
30473;DHT22;17263;48.160;11.452;2023-05-07T05:05:34;16.30;99.90
30473;DHT22;17263;48.160;11.452;2023-05-07T05:08:00;16.50;99.90
30473;DHT22;17263;48.160;11.452;2023-05-07T05:10:26;16.70;99.90
30473;DHT22;17263;48.160;11.452;2023-05-07T05:12:52;16.90;99.90
30473;DHT22;17263;48.160;11.452;2023-05-07T05:15:18;17.10;99.90
30473;DHT22;17263;48.160;11.452;2023-05-07T05:17:44;17.20;99.90
30473;DHT22;17263;48.160;11.452;2023-05-07T05:20:11;17.40;99.90
30473;DHT22;17263;48.160;11.452;2023-05-07T05:22:37;17.50;99.90
30473;DHT22;17263;48.160;11.452;2023-05-07T05:25:03;17.60;99.90
30473;DHT22;17263;48.160;11.452;2023-05-07T05:27:30;17.90;99.90
30473;DHT22;17263;48.160;11.452;2023-05-07T05:29:56;18.40;99.90
30473;DHT22;17263;48.160;11.452;2023-05-07T05:32:22;18.80;99.90
30473;DHT22;17263;48.160;11.452;2023-05-07T05:34:48;19.00;99.90
30473;DHT22;17263;48.160;11.452;2023-05-07T05:37:14;19.40;99.90
30473;DHT22;17263;48.160;11.452;2023-05-07T05:39:40;19.90;99.90
30473;DHT22;17263;48.160;11.452;2023-05-07T05:42:06;20.40;99.90
30473;DHT22;17263;48.160;11.452;2023-05-07T05:44:32;21.00;99.90
30473;DHT22;17263;48.160;11.452;2023-05-07T05:46:58;21.30;99.90
30473;DHT22;17263;48.160;11.452;2023-05-07T05:49:25;21.80;99.90
30473;DHT22;17263;48.160;11.452;2023-05-07T05:51:51;22.10;99.90
30473;DHT22;17263;48.160;11.452;2023-05-07T05:54:17;22.50;99.90
30473;DHT22;17263;48.160;11.452;2023-05-07T05:56:43;22.80;99.90
30473;DHT22;17263;48.160;11.452;2023-05-07T05:59:10;23.10;99.90
30473;DHT22;17263;48.160;11.452;2023-05-07T06:01:36;23.50;99.90
30473;DHT22;17263;48.160;11.452;2023-05-07T06:04:02;23.70;99.90
30473;DHT22;17263;48.160;11.452;2023-05-07T06:06:28;24.00;99.90
30473;DHT22;17263;48.160;11.452;2023-05-07T06:08:54;24.20;99.90
30473;DHT22;17263;48.160;11.452;2023-05-07T06:11:20;24.30;99.90
30473;DHT22;17263;48.160;11.452;2023-05-07T06:13:46;24.20;99.90
30473;DHT22;17263;48.160;11.452;2023-05-07T06:16:12;24.40;99.90
30473;DHT22;17263;48.160;11.452;2023-05-07T06:18:38;24.60;99.90
30473;DHT22;17263;48.160;11.452;2023-05-07T06:21:04;24.80;99.90
30473;DHT22;17263;48.160;11.452;2023-05-07T06:23:30;25.00;99.90
30473;DHT22;17263;48.160;11.452;2023-05-07T06:25:57;25.20;98.80
30473;DHT22;17263;48.160;11.452;2023-05-07T06:28:23;25.10;97.70
30473;DHT22;17263;48.160;11.452;2023-05-07T06:30:49;25.20;97.70
30473;DHT22;17263;48.160;11.452;2023-05-07T06:33:16;25.30;96.40
30473;DHT22;17263;48.160;11.452;2023-05-07T06:35:42;25.50;95.80
30473;DHT22;17263;48.160;11.452;2023-05-07T06:38:08;25.40;95.20
30473;DHT22;17263;48.160;11.452;2023-05-07T06:40:34;25.60;95.00
30473;DHT22;17263;48.160;11.452;2023-05-07T06:43:00;25.70;94.90
30473;DHT22;17263;48.160;11.452;2023-05-07T06:45:26;25.50;94.20
30473;DHT22;17263;48.160;11.452;2023-05-07T06:47:52;25.60;94.60
30473;DHT22;17263;48.160;11.452;2023-05-07T06:50:18;25.80;93.70
30473;DHT22;17263;48.160;11.452;2023-05-07T06:52:44;26.10;93.80
30473;DHT22;17263;48.160;11.452;2023-05-07T06:55:10;26.00;92.40
30473;DHT22;17263;48.160;11.452;2023-05-07T06:57:37;26.20;92.10
30473;DHT22;17263;48.160;11.452;2023-05-07T07:00:04;26.10;92.00
30473;DHT22;17263;48.160;11.452;2023-05-07T07:02:32;25.80;91.30
30473;DHT22;17263;48.160;11.452;2023-05-07T07:04:58;25.50;91.60
30473;DHT22;17263;48.160;11.452;2023-05-07T07:07:24;25.60;90.80
30473;DHT22;17263;48.160;11.452;2023-05-07T07:09:50;25.40;92.10
30473;DHT22;17263;48.160;11.452;2023-05-07T07:12:17;25.60;91.00
30473;DHT22;17263;48.160;11.452;2023-05-07T07:14:43;26.00;90.90
30473;DHT22;17263;48.160;11.452;2023-05-07T07:17:09;26.40;88.50
30473;DHT22;17263;48.160;11.452;2023-05-07T07:19:35;26.60;89.00
30473;DHT22;17263;48.160;11.452;2023-05-07T07:22:02;26.60;88.70
30473;DHT22;17263;48.160;11.452;2023-05-07T07:24:28;26.70;89.00
30473;DHT22;17263;48.160;11.452;2023-05-07T07:26:54;26.80;87.00
30473;DHT22;17263;48.160;11.452;2023-05-07T07:29:21;27.00;85.80
30473;DHT22;17263;48.160;11.452;2023-05-07T07:31:48;27.10;84.00
30473;DHT22;17263;48.160;11.452;2023-05-07T07:34:15;27.10;83.70
30473;DHT22;17263;48.160;11.452;2023-05-07T07:36:41;27.40;83.10
30473;DHT22;17263;48.160;11.452;2023-05-07T07:39:07;27.60;80.60
30473;DHT22;17263;48.160;11.452;2023-05-07T07:41:33;27.20;78.90
30473;DHT22;17263;48.160;11.452;2023-05-07T07:43:59;26.80;79.40
30473;DHT22;17263;48.160;11.452;2023-05-07T07:46:25;26.60;79.50
30473;DHT22;17263;48.160;11.452;2023-05-07T07:48:52;26.10;81.70
30473;DHT22;17263;48.160;11.452;2023-05-07T07:51:18;26.00;82.90
30473;DHT22;17263;48.160;11.452;2023-05-07T07:53:44;26.10;83.50
30473;DHT22;17263;48.160;11.452;2023-05-07T07:56:10;26.00;82.00
30473;DHT22;17263;48.160;11.452;2023-05-07T07:58:36;26.10;81.10
30473;DHT22;17263;48.160;11.452;2023-05-07T08:01:03;26.30;83.20
30473;DHT22;17263;48.160;11.452;2023-05-07T08:03:29;26.50;80.80
30473;DHT22;17263;48.160;11.452;2023-05-07T08:05:58;26.60;80.50
30473;DHT22;17263;48.160;11.452;2023-05-07T08:08:24;26.70;78.90
30473;DHT22;17263;48.160;11.452;2023-05-07T08:10:50;26.70;78.60
30473;DHT22;17263;48.160;11.452;2023-05-07T08:13:22;26.70;78.90
30473;DHT22;17263;48.160;11.452;2023-05-07T08:15:49;26.80;79.00
30473;DHT22;17263;48.160;11.452;2023-05-07T08:18:15;26.70;80.10
30473;DHT22;17263;48.160;11.452;2023-05-07T08:20:42;26.70;81.30
30473;DHT22;17263;48.160;11.452;2023-05-07T08:23:08;26.50;80.00
30473;DHT22;17263;48.160;11.452;2023-05-07T08:25:34;26.70;79.70
30473;DHT22;17263;48.160;11.452;2023-05-07T08:28:01;26.80;79.20
30473;DHT22;17263;48.160;11.452;2023-05-07T08:30:27;26.90;78.10
30473;DHT22;17263;48.160;11.452;2023-05-07T08:32:53;27.10;77.70
30473;DHT22;17263;48.160;11.452;2023-05-07T08:35:19;27.10;78.80
30473;DHT22;17263;48.160;11.452;2023-05-07T08:37:45;27.00;79.20
30473;DHT22;17263;48.160;11.452;2023-05-07T08:40:12;26.80;78.00
30473;DHT22;17263;48.160;11.452;2023-05-07T08:42:40;26.30;79.30
30473;DHT22;17263;48.160;11.452;2023-05-07T08:45:11;26.20;80.20
30473;DHT22;17263;48.160;11.452;2023-05-07T08:47:50;25.80;80.10
30473;DHT22;17263;48.160;11.452;2023-05-07T08:50:20;25.80;81.90
30473;DHT22;17263;48.160;11.452;2023-05-07T08:52:46;25.80;83.10
30473;DHT22;17263;48.160;11.452;2023-05-07T08:55:12;25.80;81.60
30473;DHT22;17263;48.160;11.452;2023-05-07T08:57:39;25.70;82.00
30473;DHT22;17263;48.160;11.452;2023-05-07T09:00:06;25.80;81.50
30473;DHT22;17263;48.160;11.452;2023-05-07T09:02:35;26.00;82.40
30473;DHT22;17263;48.160;11.452;2023-05-07T09:05:06;26.00;80.50
30473;DHT22;17263;48.160;11.452;2023-05-07T09:07:33;26.30;80.50
30473;DHT22;17263;48.160;11.452;2023-05-07T09:10:02;26.20;79.10
30473;DHT22;17263;48.160;11.452;2023-05-07T09:12:28;26.30;79.40
30473;DHT22;17263;48.160;11.452;2023-05-07T09:14:54;26.20;76.50
30473;DHT22;17263;48.160;11.452;2023-05-07T09:17:20;26.10;78.40
30473;DHT22;17263;48.160;11.452;2023-05-07T09:19:46;26.30;79.10
30473;DHT22;17263;48.160;11.452;2023-05-07T09:22:13;26.40;79.20
30473;DHT22;17263;48.160;11.452;2023-05-07T09:24:39;26.40;80.30
30473;DHT22;17263;48.160;11.452;2023-05-07T09:27:06;26.40;76.10
30473;DHT22;17263;48.160;11.452;2023-05-07T09:29:32;26.10;74.70
30473;DHT22;17263;48.160;11.452;2023-05-07T09:32:10;26.00;76.10
30473;DHT22;17263;48.160;11.452;2023-05-07T09:34:36;26.00;77.00
30473;DHT22;17263;48.160;11.452;2023-05-07T09:37:04;25.90;76.50
30473;DHT22;17263;48.160;11.452;2023-05-07T09:39:44;25.90;76.80
30473;DHT22;17263;48.160;11.452;2023-05-07T09:42:11;25.80;75.10
30473;DHT22;17263;48.160;11.452;2023-05-07T09:44:38;25.60;75.10
30473;DHT22;17263;48.160;11.452;2023-05-07T09:47:05;25.40;75.00
30473;DHT22;17263;48.160;11.452;2023-05-07T09:49:34;25.30;74.40
30473;DHT22;17263;48.160;11.452;2023-05-07T09:52:03;25.10;76.80
30473;DHT22;17263;48.160;11.452;2023-05-07T09:54:32;25.00;76.90
30473;DHT22;17263;48.160;11.452;2023-05-07T09:57:01;25.00;78.70
30473;DHT22;17263;48.160;11.452;2023-05-07T09:59:28;25.10;79.30
30473;DHT22;17263;48.160;11.452;2023-05-07T10:01:57;25.10;74.30
30473;DHT22;17263;48.160;11.452;2023-05-07T10:04:25;25.10;74.60
30473;DHT22;17263;48.160;11.452;2023-05-07T10:06:52;24.90;75.60
30473;DHT22;17263;48.160;11.452;2023-05-07T10:09:20;24.80;77.40
30473;DHT22;17263;48.160;11.452;2023-05-07T10:11:48;24.70;77.20
30473;DHT22;17263;48.160;11.452;2023-05-07T10:14:14;24.60;77.30
30473;DHT22;17263;48.160;11.452;2023-05-07T10:16:41;24.50;76.60
30473;DHT22;17263;48.160;11.452;2023-05-07T10:19:08;24.30;76.10
30473;DHT22;17263;48.160;11.452;2023-05-07T10:21:39;24.20;77.50
30473;DHT22;17263;48.160;11.452;2023-05-07T10:24:09;24.20;76.50
30473;DHT22;17263;48.160;11.452;2023-05-07T10:26:46;24.10;77.20
30473;DHT22;17263;48.160;11.452;2023-05-07T10:34:47;23.80;78.20
30473;DHT22;17263;48.160;11.452;2023-05-07T10:37:15;23.70;78.40
30473;DHT22;17263;48.160;11.452;2023-05-07T10:39:41;23.70;78.20
30473;DHT22;17263;48.160;11.452;2023-05-07T10:42:08;23.70;79.30
30473;DHT22;17263;48.160;11.452;2023-05-07T10:44:35;23.80;81.30
30473;DHT22;17263;48.160;11.452;2023-05-07T10:47:13;23.80;79.30
30473;DHT22;17263;48.160;11.452;2023-05-07T10:54:42;23.50;78.00
30473;DHT22;17263;48.160;11.452;2023-05-07T10:59:54;23.30;78.70
30473;DHT22;17263;48.160;11.452;2023-05-07T11:02:20;23.10;80.00
30473;DHT22;17263;48.160;11.452;2023-05-07T11:05:19;23.10;80.00
30473;DHT22;17263;48.160;11.452;2023-05-07T11:08:00;23.10;81.10
30473;DHT22;17263;48.160;11.452;2023-05-07T11:10:55;23.10;80.30
30473;DHT22;17263;48.160;11.452;2023-05-07T11:13:57;23.00;79.60
30473;DHT22;17263;48.160;11.452;2023-05-07T11:16:24;23.00;80.80
30473;DHT22;17263;48.160;11.452;2023-05-07T11:18:54;23.00;78.90
30473;DHT22;17263;48.160;11.452;2023-05-07T11:24:01;23.10;81.50
30473;DHT22;17263;48.160;11.452;2023-05-07T11:26:48;23.10;81.30
30473;DHT22;17263;48.160;11.452;2023-05-07T11:29:16;23.10;81.90
30473;DHT22;17263;48.160;11.452;2023-05-07T11:31:43;23.10;81.70
30473;DHT22;17263;48.160;11.452;2023-05-07T11:34:09;23.20;86.10
30473;DHT22;17263;48.160;11.452;2023-05-07T11:36:42;23.10;87.20
30473;DHT22;17263;48.160;11.452;2023-05-07T11:39:25;23.10;82.50
30473;DHT22;17263;48.160;11.452;2023-05-07T11:41:51;22.90;86.80
30473;DHT22;17263;48.160;11.452;2023-05-07T11:44:17;22.90;88.70
30473;DHT22;17263;48.160;11.452;2023-05-07T11:46:44;23.00;89.30
30473;DHT22;17263;48.160;11.452;2023-05-07T11:49:10;23.00;88.90
30473;DHT22;17263;48.160;11.452;2023-05-07T11:51:36;23.00;88.50
30473;DHT22;17263;48.160;11.452;2023-05-07T11:54:06;22.90;89.00
30473;DHT22;17263;48.160;11.452;2023-05-07T11:56:37;22.90;89.60
30473;DHT22;17263;48.160;11.452;2023-05-07T11:59:04;22.90;90.10
30473;DHT22;17263;48.160;11.452;2023-05-07T12:01:30;22.70;90.00
30473;DHT22;17263;48.160;11.452;2023-05-07T12:03:56;22.70;90.40
30473;DHT22;17263;48.160;11.452;2023-05-07T12:06:22;22.70;90.00
30473;DHT22;17263;48.160;11.452;2023-05-07T12:08:48;22.80;90.30
30473;DHT22;17263;48.160;11.452;2023-05-07T12:11:24;22.80;89.70
30473;DHT22;17263;48.160;11.452;2023-05-07T12:13:51;22.80;89.30
30473;DHT22;17263;48.160;11.452;2023-05-07T12:16:17;22.80;89.90
30473;DHT22;17263;48.160;11.452;2023-05-07T12:18:44;22.80;89.90
30473;DHT22;17263;48.160;11.452;2023-05-07T12:21:10;22.90;89.30
30473;DHT22;17263;48.160;11.452;2023-05-07T12:23:37;23.00;87.40
30473;DHT22;17263;48.160;11.452;2023-05-07T12:26:04;23.00;87.70
30473;DHT22;17263;48.160;11.452;2023-05-07T12:28:32;23.10;87.60
30473;DHT22;17263;48.160;11.452;2023-05-07T12:31:02;23.10;87.20
30473;DHT22;17263;48.160;11.452;2023-05-07T12:33:28;23.20;87.80
30473;DHT22;17263;48.160;11.452;2023-05-07T12:35:55;23.20;85.40
30473;DHT22;17263;48.160;11.452;2023-05-07T12:38:22;23.20;85.50
30473;DHT22;17263;48.160;11.452;2023-05-07T12:40:50;23.30;86.30
30473;DHT22;17263;48.160;11.452;2023-05-07T12:43:28;23.30;84.40
30473;DHT22;17263;48.160;11.452;2023-05-07T12:45:57;23.30;82.70
30473;DHT22;17263;48.160;11.452;2023-05-07T12:48:23;23.10;82.90
30473;DHT22;17263;48.160;11.452;2023-05-07T12:51:02;23.10;83.80
30473;DHT22;17263;48.160;11.452;2023-05-07T12:53:29;23.10;84.70
30473;DHT22;17263;48.160;11.452;2023-05-07T12:55:56;23.10;83.60
30473;DHT22;17263;48.160;11.452;2023-05-07T12:58:31;23.10;82.70
30473;DHT22;17263;48.160;11.452;2023-05-07T13:01:00;22.90;83.40
30473;DHT22;17263;48.160;11.452;2023-05-07T13:03:30;22.90;83.20
30473;DHT22;17263;48.160;11.452;2023-05-07T13:06:02;22.80;83.60
30473;DHT22;17263;48.160;11.452;2023-05-07T13:08:40;22.80;82.10
30473;DHT22;17263;48.160;11.452;2023-05-07T13:11:09;22.80;83.00
30473;DHT22;17263;48.160;11.452;2023-05-07T13:13:37;22.90;83.30
30473;DHT22;17263;48.160;11.452;2023-05-07T13:16:05;22.90;81.90
30473;DHT22;17263;48.160;11.452;2023-05-07T13:18:33;22.90;81.40
30473;DHT22;17263;48.160;11.452;2023-05-07T13:20:59;22.90;79.90
30473;DHT22;17263;48.160;11.452;2023-05-07T13:23:27;22.90;80.90
30473;DHT22;17263;48.160;11.452;2023-05-07T13:25:53;22.80;80.70
30473;DHT22;17263;48.160;11.452;2023-05-07T13:28:23;22.90;80.70
30473;DHT22;17263;48.160;11.452;2023-05-07T13:30:50;23.00;83.70
30473;DHT22;17263;48.160;11.452;2023-05-07T13:33:17;23.10;82.30
30473;DHT22;17263;48.160;11.452;2023-05-07T13:35:44;23.10;80.40
30473;DHT22;17263;48.160;11.452;2023-05-07T13:38:10;23.10;79.40
30473;DHT22;17263;48.160;11.452;2023-05-07T13:40:36;23.20;80.50
30473;DHT22;17263;48.160;11.452;2023-05-07T13:43:02;23.20;79.50
30473;DHT22;17263;48.160;11.452;2023-05-07T13:45:29;23.20;80.50
30473;DHT22;17263;48.160;11.452;2023-05-07T13:47:56;23.10;80.30
30473;DHT22;17263;48.160;11.452;2023-05-07T13:50:22;23.10;81.90
30473;DHT22;17263;48.160;11.452;2023-05-07T13:52:48;23.00;82.20
30473;DHT22;17263;48.160;11.452;2023-05-07T13:55:21;22.90;81.90
30473;DHT22;17263;48.160;11.452;2023-05-07T13:57:55;22.90;84.70
30473;DHT22;17263;48.160;11.452;2023-05-07T14:00:22;22.90;83.80
30473;DHT22;17263;48.160;11.452;2023-05-07T14:02:48;22.90;84.40
30473;DHT22;17263;48.160;11.452;2023-05-07T14:05:15;22.80;84.40
30473;DHT22;17263;48.160;11.452;2023-05-07T14:07:41;22.70;82.50
30473;DHT22;17263;48.160;11.452;2023-05-07T14:10:07;22.70;82.00
30473;DHT22;17263;48.160;11.452;2023-05-07T14:12:34;22.60;82.20
30473;DHT22;17263;48.160;11.452;2023-05-07T14:15:00;22.50;82.90
30473;DHT22;17263;48.160;11.452;2023-05-07T14:17:26;22.50;84.60
30473;DHT22;17263;48.160;11.452;2023-05-07T14:19:53;22.40;85.90
30473;DHT22;17263;48.160;11.452;2023-05-07T14:22:22;22.30;87.80
30473;DHT22;17263;48.160;11.452;2023-05-07T14:24:49;22.30;85.00
30473;DHT22;17263;48.160;11.452;2023-05-07T14:27:16;22.20;88.20
30473;DHT22;17263;48.160;11.452;2023-05-07T14:29:42;22.20;90.00
30473;DHT22;17263;48.160;11.452;2023-05-07T14:32:08;22.20;90.30
30473;DHT22;17263;48.160;11.452;2023-05-07T14:34:34;22.20;90.60
30473;DHT22;17263;48.160;11.452;2023-05-07T14:37:01;22.20;91.20
30473;DHT22;17263;48.160;11.452;2023-05-07T14:39:27;22.20;91.30
30473;DHT22;17263;48.160;11.452;2023-05-07T14:41:53;22.20;90.60
30473;DHT22;17263;48.160;11.452;2023-05-07T14:44:20;22.20;90.80
30473;DHT22;17263;48.160;11.452;2023-05-07T14:46:46;22.20;91.00
30473;DHT22;17263;48.160;11.452;2023-05-07T14:49:14;22.20;90.40
30473;DHT22;17263;48.160;11.452;2023-05-07T14:51:46;22.10;90.60
30473;DHT22;17263;48.160;11.452;2023-05-07T14:54:12;22.00;90.90
30473;DHT22;17263;48.160;11.452;2023-05-07T14:56:39;21.90;91.00
30473;DHT22;17263;48.160;11.452;2023-05-07T14:59:06;21.90;90.80
30473;DHT22;17263;48.160;11.452;2023-05-07T15:01:34;21.80;91.10
30473;DHT22;17263;48.160;11.452;2023-05-07T15:04:01;21.80;91.30
30473;DHT22;17263;48.160;11.452;2023-05-07T15:06:27;21.80;90.90
30473;DHT22;17263;48.160;11.452;2023-05-07T15:08:53;21.80;91.10
30473;DHT22;17263;48.160;11.452;2023-05-07T15:11:19;21.70;91.30
30473;DHT22;17263;48.160;11.452;2023-05-07T15:13:45;21.60;91.20
30473;DHT22;17263;48.160;11.452;2023-05-07T15:16:11;21.60;91.30
30473;DHT22;17263;48.160;11.452;2023-05-07T15:18:37;21.60;91.50
30473;DHT22;17263;48.160;11.452;2023-05-07T15:21:03;21.60;91.60
30473;DHT22;17263;48.160;11.452;2023-05-07T15:23:30;21.50;91.50
30473;DHT22;17263;48.160;11.452;2023-05-07T15:25:56;21.50;91.60
30473;DHT22;17263;48.160;11.452;2023-05-07T15:28:22;21.40;91.80
30473;DHT22;17263;48.160;11.452;2023-05-07T15:30:50;21.40;91.90